Time;durP1;ratioP1;P1;durP2;ratioP2;P2;SDS_P1;SDS_P2;PMS_P1;PMS_P2;Temp;Humidity;BMP_temperature;BMP_pressure;BME280_temperature;BME280_humidity;BME280_pressure;Samples;Min_cycle;Max_cycle;Signal;HPM_P1;HPM_P2
2022/04/11 00:01:25;;;;;;;2.50;0.80;;;5.50;60.40;;;;;;4955959;28;20553;-79
2022/04/11 00:03:51;;;;;;;1.60;0.88;;;5.50;60.50;;;;;;4966190;28;20434;-79
2022/04/11 00:06:16;;;;;;;1.90;0.98;;;5.40;60.50;;;;;;4955590;28;20051;-79
2022/04/11 00:08:42;;;;;;;2.15;0.98;;;5.40;60.60;;;;;;4956873;28;20047;-79
2022/04/11 00:11:08;;;;;;;1.95;0.80;;;5.40;60.60;;;;;;4951457;28;20039;-79
2022/04/11 00:13:34;;;;;;;2.35;1.30;;;5.30;60.60;;;;;;4941735;29;20101;-80
2022/04/11 00:15:59;;;;;;;1.92;0.88;;;5.30;60.70;;;;;;4951453;28;20421;-79
2022/04/11 00:18:25;;;;;;;2.28;0.80;;;5.30;60.80;;;;;;4976832;28;20049;-79
2022/04/11 00:20:52;;;;;;;2.13;0.90;;;5.30;60.90;;;;;;4977227;28;20049;-79
2022/04/11 00:23:18;;;;;;;2.03;1.00;;;5.30;61.00;;;;;;4960749;28;20121;-79
2022/04/11 00:25:44;;;;;;;3.30;1.40;;;5.20;61.00;;;;;;4978197;28;20038;-79
2022/04/11 00:28:10;;;;;;;3.58;1.10;;;5.20;61.10;;;;;;4959167;28;20043;-79
2022/04/11 00:30:36;;;;;;;2.45;1.20;;;5.20;61.20;;;;;;4959649;28;20501;-79
2022/04/11 00:33:02;;;;;;;2.38;1.10;;;5.20;61.20;;;;;;4977739;28;20035;-79
2022/04/11 00:35:28;;;;;;;3.47;2.10;;;5.20;61.20;;;;;;4976416;28;20066;-79
2022/04/11 00:37:53;;;;;;;3.33;1.23;;;5.20;61.30;;;;;;4978176;28;20081;-79
2022/04/11 00:40:19;;;;;;;2.35;1.10;;;5.20;61.30;;;;;;4967314;28;20162;-79
2022/04/11 00:42:51;;;;;;;3.28;1.17;;;5.10;61.30;;;;;;4960903;28;20051;-79
2022/04/11 00:45:17;;;;;;;2.90;1.10;;;5.10;61.30;;;;;;4975296;28;20449;-79
2022/04/11 00:47:45;;;;;;;4.00;1.38;;;5.10;61.30;;;;;;4941893;29;20051;-79
2022/04/11 00:50:12;;;;;;;3.80;1.23;;;5.10;61.30;;;;;;4971767;28;20077;-78
2022/04/11 00:52:44;;;;;;;2.13;1.10;;;5.10;61.20;;;;;;4974762;28;20137;-79
2022/04/11 00:55:10;;;;;;;4.30;1.75;;;5.10;61.40;;;;;;4977597;28;20042;-79
2022/04/11 00:57:36;;;;;;;2.53;0.80;;;5.10;61.30;;;;;;4959448;28;20043;-79
2022/04/11 01:00:04;;;;;;;2.90;1.23;;;5.10;61.30;;;;;;4970438;28;20086;-79
2022/04/11 01:02:30;;;;;;;3.13;1.38;;;5.00;61.30;;;;;;4960369;28;20043;-79
2022/04/11 01:04:55;;;;;;;2.35;1.10;;;5.10;61.40;;;;;;4969721;28;20109;-78
2022/04/11 01:07:21;;;;;;;2.80;1.20;;;5.10;61.50;;;;;;4962005;28;20063;-78
2022/04/11 01:09:47;;;;;;;2.63;1.42;;;5.00;61.50;;;;;;4976935;28;20125;-78
2022/04/11 01:12:15;;;;;;;4.03;1.63;;;5.00;61.50;;;;;;4957228;28;20441;-78
2022/04/11 01:14:42;;;;;;;2.83;1.20;;;5.00;61.50;;;;;;4958258;28;20422;-79
2022/04/11 01:17:11;;;;;;;3.08;1.42;;;5.00;61.50;;;;;;4947984;28;20302;-79
2022/04/11 01:19:37;;;;;;;2.70;1.30;;;5.00;61.40;;;;;;4964691;28;20371;-79
2022/04/11 01:22:03;;;;;;;2.58;1.20;;;5.00;61.40;;;;;;4972714;28;20057;-79
2022/04/11 01:24:29;;;;;;;1.52;0.95;;;5.00;61.60;;;;;;4961319;28;20066;-78
2022/04/11 01:26:55;;;;;;;3.22;1.80;;;5.00;61.30;;;;;;4967014;28;20111;-79
2022/04/11 01:29:21;;;;;;;2.17;1.40;;;4.90;61.30;;;;;;4976856;28;20073;-78
2022/04/11 01:31:47;;;;;;;2.90;1.30;;;4.90;61.40;;;;;;4958074;28;20043;-79
2022/04/11 01:34:13;;;;;;;2.40;1.67;;;4.90;61.50;;;;;;4975731;28;20062;-79
2022/04/11 01:36:39;;;;;;;4.13;1.52;;;4.90;61.50;;;;;;4964415;28;20050;-79
2022/04/11 01:39:05;;;;;;;3.17;1.88;;;4.90;61.30;;;;;;4977243;28;20490;-78
2022/04/11 01:41:31;;;;;;;3.15;1.52;;;4.90;61.40;;;;;;4975547;28;20405;-78
2022/04/11 01:43:57;;;;;;;3.90;1.67;;;4.80;61.30;;;;;;4951592;29;20047;-78
2022/04/11 01:46:22;;;;;;;5.75;1.98;;;4.80;61.80;;;;;;4961306;28;20426;-78
2022/04/11 01:48:48;;;;;;;3.72;1.70;;;4.80;61.40;;;;;;4985309;28;20039;-79
2022/04/11 01:51:14;;;;;;;3.40;1.65;;;4.80;61.40;;;;;;4989711;28;20035;-78
2022/04/11 01:53:40;;;;;;;6.18;1.98;;;4.80;61.40;;;;;;4954934;28;20490;-79
2022/04/11 01:56:06;;;;;;;4.35;1.25;;;4.70;61.20;;;;;;4982813;28;20498;-79
2022/04/11 01:58:31;;;;;;;2.67;1.45;;;4.70;61.10;;;;;;4958337;28;20043;-78
2022/04/11 02:00:58;;;;;;;3.58;1.60;;;4.70;61.30;;;;;;4970519;28;20038;-79
2022/04/11 02:03:27;;;;;;;3.33;1.63;;;4.70;61.50;;;;;;4975126;28;20090;-78
2022/04/11 02:05:53;;;;;;;2.40;1.35;;;4.60;61.60;;;;;;4965660;28;20047;-78
2022/04/11 02:08:19;;;;;;;2.30;1.33;;;4.60;61.60;;;;;;4955252;28;20050;-79
2022/04/11 02:10:46;;;;;;;2.90;1.25;;;4.60;61.60;;;;;;4976206;28;20062;-79
2022/04/11 02:13:12;;;;;;;4.38;1.23;;;4.60;61.70;;;;;;4943814;29;20078;-79
2022/04/11 02:15:37;;;;;;;2.30;1.13;;;4.60;61.90;;;;;;4959395;28;20039;-79
2022/04/11 02:18:03;;;;;;;3.60;1.75;;;4.60;62.00;;;;;;4957655;28;20103;-79
2022/04/11 02:20:30;;;;;;;2.42;1.52;;;4.60;62.10;;;;;;4963737;28;20085;-79
2022/04/11 02:22:58;;;;;;;2.75;1.55;;;4.60;62.20;;;;;;4975064;28;20067;-79
2022/04/11 02:25:29;;;;;;;3.20;1.20;;;4.60;62.10;;;;;;4957608;28;20085;-79
2022/04/11 02:27:57;;;;;;;3.25;1.40;;;4.50;62.00;;;;;;4973955;28;20051;-78
2022/04/11 02:30:24;;;;;;;2.80;1.55;;;4.50;62.10;;;;;;4957639;28;20050;-79
2022/04/11 02:32:51;;;;;;;3.03;1.50;;;4.50;62.10;;;;;;4974966;28;20126;-78
2022/04/11 02:35:17;;;;;;;2.13;1.48;;;4.50;62.10;;;;;;4974238;28;20490;-78
2022/04/11 02:37:46;;;;;;;3.00;1.25;;;4.50;62.20;;;;;;4973454;28;20039;-78
2022/04/11 02:40:13;;;;;;;2.70;1.10;;;4.50;62.30;;;;;;4973707;28;20379;-79
2022/04/11 02:42:43;;;;;;;2.97;1.60;;;4.50;62.40;;;;;;4957803;28;20039;-78
2022/04/11 02:45:10;;;;;;;2.60;1.20;;;4.50;62.50;;;;;;4939937;28;20055;-78
2022/04/11 02:47:36;;;;;;;2.55;1.38;;;4.50;62.50;;;;;;4941011;28;20054;-78
2022/04/11 02:50:02;;;;;;;2.92;1.25;;;4.50;62.50;;;;;;4960019;28;20398;-78
2022/04/11 02:52:30;;;;;;;3.67;1.20;;;4.50;62.40;;;;;;4968523;28;20053;-79
2022/04/11 02:54:56;;;;;;;3.00;1.42;;;4.40;62.30;;;;;;4939530;29;20058;-79
2022/04/11 02:57:23;;;;;;;3.38;1.30;;;4.40;62.40;;;;;;4940220;28;20047;-79
2022/04/11 02:59:49;;;;;;;5.03;1.70;;;4.40;62.40;;;;;;4957564;28;20544;-79
2022/04/11 03:02:15;;;;;;;3.90;1.50;;;4.40;62.50;;;;;;4957079;28;20050;-79
2022/04/11 03:04:41;;;;;;;2.55;1.15;;;4.40;62.40;;;;;;4957609;28;20047;-79
2022/04/11 03:07:07;;;;;;;3.33;1.50;;;4.40;62.30;;;;;;4957541;28;20443;-79
2022/04/11 03:09:32;;;;;;;1.50;0.80;;;4.40;62.80;;;;;;4952632;28;20050;-79
2022/04/11 03:11:58;;;;;;;2.30;1.48;;;4.40;62.50;;;;;;4975244;28;20490;-79
2022/04/11 03:14:24;;;;;;;3.05;1.40;;;4.40;62.60;;;;;;4961729;28;20039;-78
2022/04/11 03:16:50;;;;;;;2.67;1.30;;;4.30;62.70;;;;;;4957423;28;20043;-78
2022/04/11 03:19:16;;;;;;;2.50;1.20;;;4.30;62.70;;;;;;4968037;28;20113;-79
2022/04/11 03:21:41;;;;;;;2.70;1.52;;;4.30;63.30;;;;;;4965290;28;20495;-79
2022/04/11 03:24:07;;;;;;;3.65;1.67;;;4.30;62.80;;;;;;4964939;28;20042;-79
2022/04/11 03:26:33;;;;;;;3.47;1.35;;;4.40;62.80;;;;;;4973525;28;20062;-79
2022/04/11 03:28:58;;;;;;;2.38;1.30;;;4.40;62.70;;;;;;4950097;29;20158;-79
2022/04/11 03:31:24;;;;;;;2.25;1.30;;;4.30;62.60;;;;;;4957213;28;20039;-78
2022/04/11 03:33:50;;;;;;;3.17;1.38;;;4.30;62.70;;;;;;4969950;28;20438;-78
2022/04/11 03:36:15;;;;;;;3.45;1.58;;;4.30;62.70;;;;;;4973674;28;20119;-78
2022/04/11 03:38:41;;;;;;;2.35;1.50;;;4.30;62.80;;;;;;4970741;28;20050;-79
2022/04/11 03:41:07;;;;;;;2.25;1.20;;;4.30;62.90;;;;;;4938386;28;20093;-78
2022/04/11 03:43:32;;;;;;;2.90;1.38;;;4.30;62.90;;;;;;4971792;28;20158;-78
2022/04/11 03:45:58;;;;;;;2.00;1.20;;;4.30;62.90;;;;;;4975182;28;20043;-78
2022/04/11 03:48:24;;;;;;;1.85;1.35;;;4.30;63.10;;;;;;4955713;28;20394;-79
2022/04/11 03:50:49;;;;;;;2.95;1.20;;;4.30;63.00;;;;;;4955812;28;20035;-78
2022/04/11 03:53:16;;;;;;;3.33;1.40;;;4.30;63.00;;;;;;4971959;28;20498;-78
2022/04/11 03:55:42;;;;;;;4.20;1.30;;;4.30;63.00;;;;;;4957878;28;20054;-78
2022/04/11 03:58:08;;;;;;;2.35;1.52;;;4.30;63.00;;;;;;4956696;28;20118;-78
2022/04/11 04:00:34;;;;;;;2.80;1.42;;;4.30;63.00;;;;;;4954286;28;20082;-79
2022/04/11 04:03:11;;;;;;;2.28;1.20;;;4.30;63.00;;;;;;4964403;28;20046;-78
2022/04/11 04:05:41;;;;;;;2.90;1.38;;;4.30;63.20;;;;;;4969977;28;20055;-79
2022/04/11 04:08:08;;;;;;;2.90;1.33;;;4.30;63.20;;;;;;4973096;28;20453;-78
2022/04/11 04:10:33;;;;;;;2.75;1.80;;;4.30;63.10;;;;;;4974319;28;20043;-78
2022/04/11 04:13:00;;;;;;;2.83;1.52;;;4.30;63.10;;;;;;4965494;28;20163;-79
2022/04/11 04:15:26;;;;;;;1.73;1.23;;;4.30;63.20;;;;;;4966956;28;20520;-79
2022/04/11 04:17:52;;;;;;;2.08;1.20;;;4.30;63.30;;;;;;4973456;28;20422;-78
2022/04/11 04:20:18;;;;;;;2.50;1.45;;;4.30;63.40;;;;;;4946672;29;20059;-79
2022/04/11 04:22:44;;;;;;;3.03;1.30;;;4.30;63.40;;;;;;4961603;28;20043;-78
2022/04/11 04:25:09;;;;;;;2.78;1.40;;;4.30;63.40;;;;;;4965800;28;20047;-78
2022/04/11 04:27:35;;;;;;;4.40;1.55;;;4.30;63.60;;;;;;4938905;29;20106;-78
2022/04/11 04:30:01;;;;;;;2.83;1.40;;;4.30;63.60;;;;;;4959140;28;20066;-78
2022/04/11 04:32:27;;;;;;;2.67;1.38;;;4.30;63.60;;;;;;4958603;28;20038;-78
2022/04/11 04:34:53;;;;;;;1.88;1.15;;;4.30;63.70;;;;;;4951076;29;20045;-78
2022/04/11 04:37:18;;;;;;;1.98;1.30;;;4.30;63.70;;;;;;4955396;28;20122;-77
2022/04/11 04:39:44;;;;;;;1.85;1.30;;;4.30;63.70;;;;;;4974111;28;20046;-78
2022/04/11 04:42:09;;;;;;;2.13;1.20;;;4.30;63.80;;;;;;4957051;28;20094;-78
2022/04/11 04:44:42;;;;;;;2.95;1.58;;;4.30;63.90;;;;;;4966044;28;20050;-78
2022/04/11 04:47:10;;;;;;;2.60;1.17;;;4.40;64.00;;;;;;4938288;29;20043;-78
2022/04/11 04:49:35;;;;;;;2.22;1.02;;;4.40;63.90;;;;;;4951092;28;20042;-77
2022/04/11 04:52:02;;;;;;;2.97;1.40;;;4.40;64.00;;;;;;4964851;28;20094;-78
2022/04/11 04:54:27;;;;;;;2.95;1.33;;;4.40;64.00;;;;;;4938574;29;20086;-78
2022/04/11 04:56:53;;;;;;;2.70;1.40;;;4.40;63.90;;;;;;4956243;28;20122;-78
2022/04/11 04:59:18;;;;;;;3.33;1.40;;;4.50;64.00;;;;;;4963732;28;20073;-78
2022/04/11 05:01:44;;;;;;;2.80;1.35;;;4.40;63.90;;;;;;4975411;28;20050;-78
2022/04/11 05:04:10;;;;;;;2.70;1.30;;;4.40;64.10;;;;;;4963636;28;20031;-78
2022/04/11 05:06:35;;;;;;;3.60;1.50;;;4.50;64.60;;;;;;4959695;28;20495;-78
2022/04/11 05:09:01;;;;;;;3.20;1.70;;;4.50;64.10;;;;;;4960283;28;20095;-78
2022/04/11 05:11:26;;;;;;;3.40;1.70;;;4.50;64.10;;;;;;4958538;28;20462;-78
2022/04/11 05:13:52;;;;;;;6.57;1.80;;;4.50;64.20;;;;;;4968292;28;20043;-78
2022/04/11 05:16:18;;;;;;;3.30;1.58;;;4.50;64.10;;;;;;4975961;28;20050;-78
2022/04/11 05:18:45;;;;;;;2.45;1.83;;;4.50;64.10;;;;;;4952560;29;20476;-78
2022/04/11 05:21:11;;;;;;;3.05;1.88;;;4.40;64.20;;;;;;4959727;28;20082;-78
2022/04/11 05:23:36;;;;;;;3.95;2.00;;;4.50;64.30;;;;;;4960931;28;20067;-79
2022/04/11 05:26:05;;;;;;;4.00;1.60;;;4.40;64.30;;;;;;4968336;28;20043;-79
2022/04/11 05:28:32;;;;;;;3.40;1.95;;;4.50;64.30;;;;;;4941274;28;20550;-78
2022/04/11 05:30:58;;;;;;;3.97;1.83;;;4.40;64.30;;;;;;4960918;28;20116;-79
2022/04/11 05:33:24;;;;;;;3.40;1.90;;;4.50;64.40;;;;;;4958091;28;20059;-78
2022/04/11 05:35:50;;;;;;;3.78;2.10;;;4.50;64.50;;;;;;4941311;28;20050;-79
2022/04/11 05:38:16;;;;;;;6.10;2.47;;;4.50;64.50;;;;;;4977328;28;20081;-79
2022/04/11 05:40:43;;;;;;;4.82;2.40;;;4.50;64.60;;;;;;4973731;28;20130;-78
2022/04/11 05:43:09;;;;;;;3.50;2.30;;;4.50;64.60;;;;;;4941860;29;20074;-78
2022/04/11 05:45:35;;;;;;;2.28;1.50;;;4.50;65.10;;;;;;4960582;28;20514;-79
2022/04/11 05:48:01;;;;;;;7.22;2.78;;;4.50;64.80;;;;;;4976728;28;20054;-78
2022/04/11 05:50:26;;;;;;;6.85;3.05;;;4.50;64.90;;;;;;4976130;28;20054;-78
2022/04/11 05:52:52;;;;;;;4.70;2.40;;;4.50;64.90;;;;;;4952704;28;20070;-78
2022/04/11 05:55:18;;;;;;;6.30;3.08;;;4.50;64.90;;;;;;4976943;28;20082;-79
2022/04/11 05:57:43;;;;;;;7.43;2.85;;;4.50;65.00;;;;;;4976492;28;20399;-79
2022/04/11 06:00:11;;;;;;;5.47;3.45;;;4.50;64.90;;;;;;4976883;28;20035;-78
2022/04/11 06:02:36;;;;;;;8.73;3.47;;;4.50;65.10;;;;;;4944463;28;20130;-79
2022/04/11 06:05:02;;;;;;;5.38;2.85;;;4.40;65.40;;;;;;4972235;28;20121;-78
2022/04/11 06:07:32;;;;;;;4.55;2.75;;;4.50;65.10;;;;;;4961313;28;20196;-78
2022/04/11 06:09:59;;;;;;;5.75;2.97;;;4.50;65.20;;;;;;4946744;28;20064;-78
2022/04/11 06:12:25;;;;;;;5.28;2.85;;;4.40;65.20;;;;;;4962627;28;20040;-78
2022/04/11 06:14:53;;;;;;;6.88;3.00;;;4.40;65.60;;;;;;4957761;28;20047;-78
2022/04/11 06:17:23;;;;;;;7.03;2.78;;;4.60;66.00;;;;;;4952748;28;20165;-78
2022/04/11 06:19:53;;;;;;;5.85;2.42;;;4.40;66.20;;;;;;4976998;28;20051;-79
2022/04/11 06:22:19;;;;;;;7.38;3.47;;;4.50;66.30;;;;;;4975269;28;20043;-78
2022/04/11 06:24:46;;;;;;;4.95;2.65;;;4.50;66.50;;;;;;4970444;28;20066;-79
2022/04/11 06:27:11;;;;;;;4.30;2.78;;;4.50;66.70;;;;;;4969192;29;20047;-79
2022/04/11 06:29:37;;;;;;;6.05;2.83;;;4.50;67.00;;;;;;4963169;29;20118;-80
2022/04/11 06:32:04;;;;;;;5.28;2.90;;;4.50;67.00;;;;;;4958222;28;20039;-80
2022/04/11 06:34:35;;;;;;;6.07;2.80;;;4.60;67.10;;;;;;4958765;28;20066;-79
2022/04/11 06:37:00;;;;;;;6.22;3.33;;;4.70;67.20;;;;;;4974053;28;20041;-80
2022/04/11 06:39:26;;;;;;;5.75;3.28;;;4.70;67.10;;;;;;4975489;28;20477;-80
2022/04/11 06:41:52;;;;;;;7.15;2.80;;;4.70;66.90;;;;;;4971186;28;20059;-79
2022/04/11 06:44:18;;;;;;;8.57;3.88;;;4.80;66.80;;;;;;4956656;29;20047;-80
2022/04/11 06:46:44;;;;;;;5.22;3.10;;;4.80;66.50;;;;;;4962636;28;20435;-80
2022/04/11 06:49:09;;;;;;;5.57;2.80;;;4.90;66.30;;;;;;4958633;28;20134;-80
2022/04/11 06:51:35;;;;;;;6.53;3.70;;;5.00;66.30;;;;;;4950658;28;20448;-80
2022/04/11 06:54:00;;;;;;;5.70;3.30;;;5.00;66.20;;;;;;4960553;28;20522;-80
2022/04/11 06:56:26;;;;;;;6.03;3.00;;;5.10;66.40;;;;;;4975022;28;20055;-79
2022/04/11 06:58:52;;;;;;;5.30;3.38;;;5.10;66.20;;;;;;4960863;28;20174;-80
2022/04/11 07:01:17;;;;;;;6.32;3.35;;;5.10;66.30;;;;;;4955557;28;20082;-80
2022/04/11 07:03:43;;;;;;;7.07;3.58;;;5.20;66.50;;;;;;4971633;28;20490;-80
2022/04/11 07:06:10;;;;;;;6.20;3.95;;;5.30;66.70;;;;;;4963253;28;20047;-80
2022/04/11 07:08:36;;;;;;;5.97;3.30;;;5.40;66.80;;;;;;4972064;28;20093;-78
2022/04/11 07:11:02;;;;;;;6.68;3.15;;;5.80;66.90;;;;;;4973351;28;20070;-81
2022/04/11 07:13:27;;;;;;;8.30;3.60;;;5.50;66.60;;;;;;4971092;28;20398;-81
2022/04/11 07:15:53;;;;;;;6.82;3.55;;;5.50;66.60;;;;;;4974897;28;20084;-81
2022/04/11 07:18:25;;;;;;;8.90;3.95;;;5.90;66.70;;;;;;4971934;28;20035;-81
2022/04/11 07:20:51;;;;;;;6.00;3.80;;;6.00;66.70;;;;;;4957879;28;20121;-81
2022/04/11 07:23:17;;;;;;;6.45;3.67;;;5.80;66.30;;;;;;4948193;28;20059;-81
2022/04/11 07:25:43;;;;;;;6.05;3.50;;;5.80;66.00;;;;;;4974915;28;20051;-81
2022/04/11 07:28:08;;;;;;;7.32;4.03;;;5.90;65.80;;;;;;4969911;28;20513;-81
2022/04/11 07:30:34;;;;;;;7.40;3.78;;;6.00;65.50;;;;;;4953593;28;20138;-81
2022/04/11 07:33:00;;;;;;;8.75;3.70;;;6.00;65.30;;;;;;4973230;28;20047;-81
2022/04/11 07:35:26;;;;;;;5.53;4.10;;;6.10;65.20;;;;;;4957334;28;20043;-81
2022/04/11 07:37:51;;;;;;;7.50;3.95;;;6.20;65.10;;;;;;4971424;28;20074;-81
2022/04/11 07:40:17;;;;;;;9.07;3.90;;;6.20;65.00;;;;;;4960412;28;20082;-81
2022/04/11 07:42:43;;;;;;;7.78;4.25;;;6.30;65.10;;;;;;4963939;28;20392;-81
2022/04/11 07:45:09;;;;;;;9.95;4.60;;;6.30;64.80;;;;;;4961476;28;20470;-81
2022/04/11 07:47:35;;;;;;;7.63;4.10;;;6.40;64.50;;;;;;4943267;28;20039;-81
2022/04/11 07:50:01;;;;;;;7.22;3.97;;;6.50;64.60;;;;;;4956277;28;20038;-80
2022/04/11 07:52:27;;;;;;;6.80;4.07;;;6.60;64.50;;;;;;4957077;28;20103;-80
2022/04/11 07:54:53;;;;;;;6.20;3.40;;;6.70;64.30;;;;;;4969641;28;20121;-80
2022/04/11 07:57:19;;;;;;;8.38;4.43;;;6.70;64.40;;;;;;4968593;28;20587;-81
2022/04/11 07:59:45;;;;;;;5.38;3.60;;;6.80;64.50;;;;;;4950253;28;20402;-81
2022/04/11 08:02:11;;;;;;;7.45;3.72;;;6.90;64.30;;;;;;4973024;28;20038;-81
2022/04/11 08:04:36;;;;;;;5.95;3.60;;;7.00;64.00;;;;;;4955848;28;20047;-81
2022/04/11 08:07:02;;;;;;;8.13;4.60;;;7.10;63.60;;;;;;4971022;28;20043;-81
2022/04/11 08:09:29;;;;;;;6.43;4.10;;;7.20;63.60;;;;;;4973925;28;20426;-81
2022/04/11 08:11:55;;;;;;;9.23;3.80;;;7.30;63.40;;;;;;4964373;28;20091;-81
2022/04/11 08:14:21;;;;;;;6.13;3.70;;;7.60;63.40;;;;;;4938943;29;20083;-81
2022/04/11 08:16:47;;;;;;;7.28;4.05;;;7.50;63.00;;;;;;4962228;28;20089;-81
2022/04/11 08:19:13;;;;;;;5.20;3.63;;;7.60;62.60;;;;;;4959436;28;20126;-81
2022/04/11 08:21:38;;;;;;;8.50;4.32;;;7.90;62.50;;;;;;4938140;28;20146;-81
2022/04/11 08:24:04;;;;;;;6.38;3.78;;;8.00;62.10;;;;;;4949940;28;20039;-81
2022/04/11 08:26:30;;;;;;;7.40;4.10;;;8.00;61.30;;;;;;4972017;28;20047;-80
2022/04/11 08:28:56;;;;;;;8.50;4.82;;;8.10;60.80;;;;;;4967559;28;20049;-81
2022/04/11 08:31:22;;;;;;;8.40;4.40;;;8.30;60.40;;;;;;4973233;28;20118;-81
2022/04/11 08:33:47;;;;;;;8.27;4.03;;;8.50;60.00;;;;;;4964249;28;20486;-80
2022/04/11 08:36:13;;;;;;;8.18;5.10;;;8.60;60.10;;;;;;4949023;28;20046;-81
2022/04/11 08:38:39;;;;;;;7.68;4.13;;;8.70;59.60;;;;;;4957276;28;20051;-81
2022/04/11 08:41:06;;;;;;;6.25;3.38;;;8.90;59.80;;;;;;4970355;28;20059;-81
2022/04/11 08:43:34;;;;;;;6.95;3.63;;;9.30;59.60;;;;;;4945664;28;20529;-80
2022/04/11 08:46:03;;;;;;;7.28;3.55;;;9.30;59.90;;;;;;4977180;28;20031;-81
2022/04/11 08:48:29;;;;;;;8.23;4.47;;;9.50;60.00;;;;;;4951493;28;20055;-81
2022/04/11 08:50:55;;;;;;;5.85;3.47;;;9.80;59.90;;;;;;4952974;28;20039;-81
2022/04/11 08:53:22;;;;;;;8.77;4.30;;;9.90;59.20;;;;;;4974329;28;20126;-80
2022/04/11 08:55:48;;;;;;;5.32;3.67;;;10.10;58.60;;;;;;4974521;28;20047;-81
2022/04/11 08:58:14;;;;;;;17.60;10.05;;;10.30;58.30;;;;;;4970184;28;20520;-79
2022/04/11 09:00:40;;;;;;;9.82;4.30;;;10.90;57.70;;;;;;4965655;28;20503;-81
2022/04/11 09:03:07;;;;;;;7.95;3.83;;;10.80;57.00;;;;;;4974038;28;20282;-81
2022/04/11 09:05:34;;;;;;;7.50;3.83;;;11.00;56.40;;;;;;4945730;28;20486;-81
2022/04/11 09:08:00;;;;;;;9.55;3.95;;;11.00;56.30;;;;;;4941161;28;20061;-81
2022/04/11 09:10:32;;;;;;;6.75;3.95;;;11.60;56.30;;;;;;4960322;28;20408;-80
2022/04/11 09:13:00;;;;;;;5.75;4.05;;;11.40;55.60;;;;;;4976344;28;20082;-81
2022/04/11 09:15:27;;;;;;;7.03;3.70;;;11.60;54.80;;;;;;4975195;28;20030;-81
2022/04/11 09:17:55;;;;;;;8.05;3.90;;;11.70;54.60;;;;;;4943099;28;20062;-81
2022/04/11 09:20:30;;;;;;;7.68;4.30;;;12.30;53.60;;;;;;4967735;28;20046;-81
2022/04/11 09:22:56;;;;;;;8.38;5.45;;;12.20;53.10;;;;;;4963432;28;20529;-81
2022/04/11 09:25:24;;;;;;;7.40;4.28;;;12.30;52.30;;;;;;4968255;28;20047;-81
2022/04/11 09:28:11;;;;;;;13.35;5.57;;;12.50;51.40;;;;;;4968497;28;20046;-81
2022/04/11 09:30:39;;;;;;;6.53;3.78;;;12.70;50.10;;;;;;4970503;28;20042;-81
2022/04/11 09:33:06;;;;;;;7.35;4.25;;;12.80;50.70;;;;;;4972033;28;20050;-79
2022/04/11 09:35:33;;;;;;;6.45;3.85;;;13.00;50.00;;;;;;4962813;28;20055;-80
2022/04/11 09:38:05;;;;;;;7.95;4.28;;;13.10;49.90;;;;;;4959908;28;20074;-80
2022/04/11 09:40:34;;;;;;;9.30;4.70;;;13.50;49.00;;;;;;4976302;28;20514;-82
2022/04/11 09:43:00;;;;;;;6.57;4.20;;;13.30;49.20;;;;;;4957213;28;20135;-81
2022/04/11 09:45:26;;;;;;;6.70;4.25;;;13.30;48.70;;;;;;4970272;28;20132;-81
2022/04/11 09:48:02;;;;;;;7.32;4.28;;;13.40;48.00;;;;;;4967571;28;20393;-81
2022/04/11 09:50:30;;;;;;;7.07;5.05;;;13.50;46.80;;;;;;4963131;28;20122;-83
2022/04/11 09:53:18;;;;;;;7.68;4.22;;;13.50;46.00;;;;;;4964176;28;20531;-82
2022/04/11 09:55:50;;;;;;;7.68;4.97;;;13.60;45.50;;;;;;4958776;28;20131;-82
2022/04/11 09:58:18;;;;;;;6.65;4.97;;;13.70;46.60;;;;;;4941485;28;20574;-82
2022/04/11 10:00:44;;;;;;;6.07;4.55;;;13.70;46.10;;;;;;4968202;28;20057;-82
2022/04/11 10:03:10;;;;;;;10.73;4.97;;;13.80;44.70;;;;;;4959634;28;20042;-82
2022/04/11 10:05:38;;;;;;;6.85;5.07;;;13.80;45.10;;;;;;4957474;28;20050;-81
2022/04/11 10:08:06;;;;;;;7.43;4.90;;;13.90;44.60;;;;;;4976158;28;20047;-81
2022/04/11 10:10:39;;;;;;;8.60;5.10;;;13.90;44.30;;;;;;4969640;28;20142;-81
2022/04/11 10:13:10;;;;;;;6.05;4.72;;;14.00;44.00;;;;;;4961486;28;20053;-81
2022/04/11 10:15:37;;;;;;;7.88;4.80;;;14.00;43.10;;;;;;4974603;28;20080;-81
2022/04/11 10:18:03;;;;;;;9.00;5.18;;;14.00;42.70;;;;;;4971086;28;20054;-81
2022/04/11 10:20:33;;;;;;;8.93;5.50;;;14.10;42.80;;;;;;4947797;28;20054;-81
2022/04/11 10:23:21;;;;;;;8.98;5.97;;;14.10;42.60;;;;;;4969315;28;20138;-82
2022/04/11 10:25:49;;;;;;;7.93;5.30;;;14.20;42.50;;;;;;4947560;28;20133;-82
2022/04/11 10:28:20;;;;;;;9.10;5.93;;;14.30;42.20;;;;;;4976354;28;20053;-82
2022/04/11 10:31:05;;;;;;;6.65;5.07;;;14.30;41.10;;;;;;4958577;28;20085;-82
2022/04/11 10:33:40;;;;;;;8.13;4.88;;;14.40;42.00;;;;;;4965585;28;20122;-82
2022/04/11 10:36:29;;;;;;;8.10;6.07;;;14.40;41.70;;;;;;4966845;28;20168;-82
2022/04/11 10:39:12;;;;;;;8.30;5.60;;;14.50;41.30;;;;;;4969620;28;20069;-83
2022/04/11 10:41:56;;;;;;;9.80;6.13;;;14.50;41.40;;;;;;4955607;28;20439;-82
2022/04/11 10:44:33;;;;;;;9.73;6.47;;;14.60;41.00;;;;;;4953785;28;20051;-82
2022/04/11 10:47:11;;;;;;;7.18;5.43;;;14.70;40.80;;;;;;4967096;28;20039;-82
2022/04/11 10:49:49;;;;;;;7.28;6.00;;;14.80;40.70;;;;;;4971971;28;20055;-83
2022/04/11 10:52:36;;;;;;;8.93;6.07;;;14.90;39.10;;;;;;4949948;28;20093;-83
2022/04/11 10:55:15;;;;;;;8.63;6.10;;;14.80;38.60;;;;;;4972073;28;20077;-82
2022/04/11 10:57:47;;;;;;;8.63;6.40;;;14.80;38.70;;;;;;4940116;29;20059;-83
2022/04/11 11:00:19;;;;;;;11.30;6.97;;;14.90;39.50;;;;;;4965542;28;20057;-83
2022/04/11 11:02:52;;;;;;;8.88;6.90;;;14.90;39.20;;;;;;4961357;28;20051;-83
2022/04/11 11:05:32;;;;;;;11.60;7.57;;;15.00;39.70;;;;;;4966742;28;20054;-83
2022/04/11 11:08:11;;;;;;;8.68;6.78;;;15.10;40.00;;;;;;4941887;29;20498;-82
2022/04/11 11:10:49;;;;;;;9.68;7.25;;;15.20;40.30;;;;;;4939883;28;20102;-82
2022/04/11 11:13:40;;;;;;;8.80;6.57;;;15.30;39.60;;;;;;4962654;28;20054;-82
2022/04/11 11:16:06;;;;;;;10.57;6.85;;;15.20;38.90;;;;;;4971257;28;20186;-82
2022/04/11 11:18:50;;;;;;;10.18;7.90;;;15.50;40.20;;;;;;4967414;28;20066;-82
2022/04/11 11:21:21;;;;;;;9.75;7.70;;;15.20;38.40;;;;;;4941407;29;20078;-82
2022/04/11 11:24:10;;;;;;;9.73;8.13;;;15.20;39.10;;;;;;4964811;28;20514;-83
2022/04/11 11:26:53;;;;;;;11.73;8.30;;;15.10;38.40;;;;;;4955383;28;20043;-81
2022/04/11 11:29:34;;;;;;;9.02;7.35;;;15.10;39.30;;;;;;4952911;28;20380;-82
2022/04/11 11:32:05;;;;;;;8.57;7.07;;;15.00;40.00;;;;;;4969354;28;20043;-83
2022/04/11 11:34:33;;;;;;;10.82;7.75;;;15.10;40.90;;;;;;4952271;29;20046;-82
2022/04/11 11:37:08;;;;;;;10.02;8.10;;;15.20;39.90;;;;;;4959119;28;20042;-82
2022/04/11 11:39:36;;;;;;;10.63;8.13;;;15.30;39.50;;;;;;4963868;28;20043;-82
2022/04/11 11:42:05;;;;;;;10.48;7.93;;;15.30;40.10;;;;;;4969619;28;20819;-82
2022/04/11 11:44:32;;;;;;;8.52;7.10;;;15.40;39.10;;;;;;4953530;28;20126;-82
2022/04/11 11:47:02;;;;;;;9.98;7.28;;;15.50;38.80;;;;;;4957535;28;20078;-81
2022/04/11 11:49:49;;;;;;;8.27;7.40;;;15.50;38.60;;;;;;4958377;28;20047;-80
2022/04/11 11:52:20;;;;;;;9.23;7.15;;;15.40;38.30;;;;;;4963680;28;20138;-81
2022/04/11 11:54:48;;;;;;;9.93;6.60;;;15.40;37.70;;;;;;4966562;28;20043;-82
2022/04/11 11:57:28;;;;;;;9.10;7.72;;;15.40;38.40;;;;;;4973941;28;20047;-81
2022/04/11 11:59:55;;;;;;;10.77;7.50;;;15.40;38.30;;;;;;4963301;28;20066;-82
2022/04/11 12:05:15;;;;;;;10.02;7.22;;;15.30;38.50;;;;;;4940974;28;20051;-81
2022/04/11 12:07:41;;;;;;;11.05;7.70;;;15.30;38.90;;;;;;4967954;28;20081;-81
2022/04/11 12:10:10;;;;;;;9.88;7.75;;;15.30;39.30;;;;;;4975326;28;20074;-81
2022/04/11 12:12:37;;;;;;;10.65;8.07;;;15.40;38.80;;;;;;4962429;28;20043;-80
2022/04/11 12:15:07;;;;;;;9.32;6.93;;;15.50;38.60;;;;;;4965414;28;20047;-81
2022/04/11 12:17:37;;;;;;;8.75;6.75;;;15.40;38.60;;;;;;4959641;28;20035;-81
2022/04/11 12:20:12;;;;;;;8.95;6.82;;;15.40;38.30;;;;;;4965514;28;20109;-80
2022/04/11 12:22:39;;;;;;;7.88;6.47;;;15.50;38.70;;;;;;4966612;28;20590;-80
2022/04/11 12:25:21;;;;;;;8.38;7.25;;;15.50;39.00;;;;;;4977564;28;20038;-80
2022/04/11 12:27:49;;;;;;;11.10;6.93;;;15.60;38.50;;;;;;4946038;29;20054;-80
2022/04/11 12:30:16;;;;;;;8.55;7.03;;;15.70;37.80;;;;;;4969382;28;20051;-79
2022/04/11 12:32:42;;;;;;;8.52;6.38;;;15.70;37.00;;;;;;4943983;29;20053;-82
2022/04/11 12:35:18;;;;;;;9.95;6.90;;;15.70;37.50;;;;;;4942005;29;20059;-81
2022/04/11 12:37:48;;;;;;;8.35;6.63;;;15.70;37.00;;;;;;4960064;28;20484;-81
2022/04/11 12:40:14;;;;;;;9.68;7.28;;;15.70;37.20;;;;;;4969662;28;20098;-79
2022/04/11 12:42:40;;;;;;;8.93;7.60;;;15.70;36.90;;;;;;4956551;28;20062;-79
2022/04/11 12:45:12;;;;;;;8.15;6.63;;;15.60;37.00;;;;;;4959927;28;20058;-80
2022/04/11 12:47:59;;;;;;;9.52;6.28;;;15.50;36.20;;;;;;4960272;28;20066;-80
2022/04/11 12:50:26;;;;;;;9.57;7.00;;;15.40;35.50;;;;;;4959002;28;20047;-79
2022/04/11 12:52:51;;;;;;;9.10;6.90;;;15.30;35.90;;;;;;4942630;29;20079;-79
2022/04/11 12:55:24;;;;;;;9.65;6.57;;;15.40;36.00;;;;;;4963660;28;20058;-81
2022/04/11 12:58:03;;;;;;;8.95;7.03;;;15.30;36.30;;;;;;4971834;28;20050;-81
2022/04/11 13:00:29;;;;;;;10.00;7.25;;;15.40;36.60;;;;;;4977977;28;20039;-81